Time;durP1;ratioP1;P1;durP2;ratioP2;P2;SDS_P1;SDS_P2;PMS_P1;PMS_P2;Temp;Humidity;BMP_temperature;BMP_pressure;BME280_temperature;BME280_humidity;BME280_pressure;Samples;Min_cycle;Max_cycle;Signal;HPM_P1;HPM_P2
2022/07/25 00:01:11;;;;;;;11.10;6.70;;;18.90;99.90;;;;;;5116591;28;20197;-79
2022/07/25 00:03:38;;;;;;;10.55;7.00;;;18.90;99.90;;;;;;5116856;28;20337;-79
2022/07/25 00:06:06;;;;;;;12.00;6.80;;;18.70;99.90;;;;;;5116284;28;20207;-79
2022/07/25 00:08:32;;;;;;;17.48;7.25;;;18.70;99.90;;;;;;5115918;28;20235;-79
2022/07/25 00:10:59;;;;;;;18.50;7.82;;;18.60;99.90;;;;;;5116027;28;20300;-79
2022/07/25 00:13:26;;;;;;;15.85;7.90;;;18.60;99.90;;;;;;5108633;28;20897;-79
2022/07/25 00:15:54;;;;;;;16.33;7.93;;;18.70;99.90;;;;;;5105608;28;20195;-79
2022/07/25 00:18:21;;;;;;;16.55;7.25;;;18.50;99.90;;;;;;5101081;28;20634;-79
2022/07/25 00:20:48;;;;;;;13.48;7.15;;;18.50;99.90;;;;;;5097095;28;20204;-79
2022/07/25 00:23:15;;;;;;;16.33;7.63;;;18.50;99.90;;;;;;5116040;28;20290;-79
2022/07/25 00:25:41;;;;;;;15.77;7.00;;;18.30;99.90;;;;;;5115095;28;20193;-79
2022/07/25 00:28:08;;;;;;;16.90;6.93;;;18.40;99.90;;;;;;5115674;28;20221;-79
2022/07/25 00:30:35;;;;;;;19.30;7.47;;;18.40;99.90;;;;;;5113602;28;20673;-79
2022/07/25 00:33:03;;;;;;;11.95;6.57;;;18.30;99.90;;;;;;5114656;28;20753;-79
2022/07/25 00:35:30;;;;;;;24.48;7.78;;;18.20;99.90;;;;;;5115578;28;20213;-79
2022/07/25 00:37:57;;;;;;;22.73;7.85;;;18.10;99.90;;;;;;5115449;28;20268;-79
2022/07/25 00:40:24;;;;;;;12.57;7.05;;;18.10;99.90;;;;;;5115721;28;20673;-78
2022/07/25 00:42:51;;;;;;;17.77;7.53;;;18.10;99.90;;;;;;5114972;28;20201;-79
2022/07/25 00:45:17;;;;;;;17.67;7.15;;;18.10;99.90;;;;;;5115635;28;20201;-79
2022/07/25 00:47:44;;;;;;;15.48;7.70;;;18.00;99.90;;;;;;5116130;28;20288;-79
2022/07/25 00:50:12;;;;;;;12.57;7.63;;;18.10;99.90;;;;;;5114946;28;20244;-79
2022/07/25 00:52:40;;;;;;;17.60;6.57;;;18.00;99.90;;;;;;5114469;28;20260;-79
2022/07/25 00:55:07;;;;;;;20.23;7.13;;;18.10;99.90;;;;;;5115457;28;20201;-79
2022/07/25 00:57:34;;;;;;;15.60;7.53;;;18.10;99.90;;;;;;5115183;28;20236;-79
2022/07/25 01:00:01;;;;;;;13.98;7.28;;;18.00;99.90;;;;;;5100137;28;20210;-79
2022/07/25 01:02:28;;;;;;;14.98;6.75;;;18.00;99.90;;;;;;5107380;28;20264;-79
2022/07/25 01:04:55;;;;;;;12.57;6.45;;;18.20;99.90;;;;;;5107165;28;20222;-79
2022/07/25 01:07:24;;;;;;;17.45;6.82;;;18.30;99.90;;;;;;5095239;28;20217;-79
2022/07/25 01:09:51;;;;;;;16.92;7.03;;;18.00;99.90;;;;;;5096303;28;20618;-78
2022/07/25 01:12:18;;;;;;;16.88;6.80;;;18.20;99.90;;;;;;5114904;28;20729;-79
2022/07/25 01:14:45;;;;;;;11.50;6.88;;;18.30;99.90;;;;;;5106507;28;20255;-79
2022/07/25 01:17:12;;;;;;;16.88;6.45;;;18.30;99.90;;;;;;5104486;28;20197;-79
2022/07/25 01:19:39;;;;;;;13.93;7.15;;;18.20;99.90;;;;;;5104073;28;20247;-79
2022/07/25 01:22:07;;;;;;;13.73;6.63;;;18.10;99.90;;;;;;5102245;28;20202;-79
2022/07/25 01:24:35;;;;;;;14.10;6.85;;;17.90;99.90;;;;;;5095768;28;20228;-79
2022/07/25 01:27:02;;;;;;;18.23;6.68;;;17.80;99.90;;;;;;5114247;28;20668;-79
2022/07/25 01:29:29;;;;;;;13.30;6.55;;;17.90;99.90;;;;;;5097820;28;20217;-79
2022/07/25 01:31:56;;;;;;;16.67;6.53;;;17.90;99.90;;;;;;5107785;28;20196;-79
2022/07/25 01:34:22;;;;;;;12.02;6.03;;;18.00;99.90;;;;;;5114060;28;20216;-79
2022/07/25 01:36:49;;;;;;;20.00;6.75;;;18.00;99.90;;;;;;5114581;28;20230;-79
2022/07/25 01:39:17;;;;;;;14.45;6.72;;;18.00;99.90;;;;;;5113841;28;20201;-79
2022/07/25 01:41:44;;;;;;;12.02;6.85;;;18.10;99.90;;;;;;5114316;28;20198;-79
2022/07/25 01:44:11;;;;;;;12.63;6.82;;;18.10;99.90;;;;;;5115217;28;20252;-79
2022/07/25 01:46:38;;;;;;;14.15;6.95;;;17.90;99.90;;;;;;5114049;28;20226;-79
2022/07/25 01:49:05;;;;;;;13.57;6.63;;;17.50;99.90;;;;;;5111949;28;20228;-79
2022/07/25 01:51:31;;;;;;;10.55;7.20;;;17.30;99.90;;;;;;5113546;28;20605;-79
2022/07/25 01:53:58;;;;;;;10.13;6.30;;;17.50;99.90;;;;;;5113781;28;20308;-79
2022/07/25 01:56:27;;;;;;;15.80;7.07;;;17.70;99.90;;;;;;5112728;28;20201;-79
2022/07/25 01:58:53;;;;;;;10.85;5.60;;;17.80;99.90;;;;;;5114007;28;20254;-79
2022/07/25 02:01:20;;;;;;;10.35;6.10;;;17.70;99.90;;;;;;5112805;28;20204;-79
2022/07/25 02:03:47;;;;;;;15.93;5.95;;;17.80;99.90;;;;;;5113728;28;20271;-79
2022/07/25 02:06:14;;;;;;;10.35;6.07;;;17.90;99.90;;;;;;5113215;28;20783;-79
2022/07/25 02:08:41;;;;;;;9.32;6.38;;;17.80;99.90;;;;;;5099899;28;20308;-79
2022/07/25 02:11:07;;;;;;;10.18;6.13;;;17.90;99.90;;;;;;5095197;28;20276;-79
2022/07/25 02:13:36;;;;;;;10.00;5.32;;;18.00;99.90;;;;;;5113111;28;20252;-79
2022/07/25 02:16:03;;;;;;;10.85;5.80;;;18.20;99.90;;;;;;5113355;28;20205;-79
2022/07/25 02:18:29;;;;;;;9.20;5.40;;;18.30;99.90;;;;;;5113726;28;20615;-79
2022/07/25 02:20:56;;;;;;;9.32;6.03;;;18.50;99.90;;;;;;5113001;28;20284;-79
2022/07/25 02:23:23;;;;;;;8.23;5.20;;;18.50;99.90;;;;;;5113404;28;20225;-78
2022/07/25 02:25:50;;;;;;;12.60;5.82;;;18.60;99.90;;;;;;5110881;28;20201;-79
2022/07/25 02:28:17;;;;;;;9.32;5.88;;;18.60;99.90;;;;;;5112295;28;20647;-79
2022/07/25 02:30:45;;;;;;;6.38;5.18;;;18.70;99.90;;;;;;5103639;28;20719;-79
2022/07/25 02:33:11;;;;;;;9.75;4.80;;;18.60;99.90;;;;;;5107977;28;20212;-79
2022/07/25 02:35:38;;;;;;;6.97;4.68;;;18.60;99.90;;;;;;5104486;28;20199;-79
2022/07/25 02:38:05;;;;;;;7.07;4.93;;;18.50;99.90;;;;;;5112073;28;20232;-79
2022/07/25 02:40:32;;;;;;;9.27;5.43;;;18.40;99.90;;;;;;5109481;28;20246;-79
2022/07/25 02:42:59;;;;;;;11.30;5.50;;;18.40;99.90;;;;;;5110829;28;20216;-79
2022/07/25 02:45:26;;;;;;;8.85;5.43;;;18.40;99.90;;;;;;5116614;28;20490;-79
2022/07/25 02:47:54;;;;;;;6.47;5.10;;;18.40;99.90;;;;;;5117211;28;20257;-77
2022/07/25 02:50:21;;;;;;;5.85;4.43;;;18.40;99.90;;;;;;5112982;28;20305;-78
2022/07/25 02:52:47;;;;;;;7.88;4.80;;;18.40;99.90;;;;;;5117449;28;20228;-79
2022/07/25 02:55:14;;;;;;;8.38;5.20;;;18.30;99.90;;;;;;5117932;28;20232;-78
2022/07/25 02:57:41;;;;;;;5.55;4.95;;;18.30;99.90;;;;;;5118755;28;20205;-77
2022/07/25 03:00:09;;;;;;;8.05;5.03;;;18.10;99.90;;;;;;5118187;28;20196;-80
2022/07/25 03:02:36;;;;;;;11.20;5.63;;;18.00;99.90;;;;;;5116828;28;20207;-79
2022/07/25 03:05:07;;;;;;;10.13;6.55;;;17.90;99.90;;;;;;5120087;28;20201;-80
2022/07/25 03:07:34;;;;;;;9.25;6.00;;;17.90;99.90;;;;;;5118762;28;20204;-79
2022/07/25 03:10:00;;;;;;;8.68;5.55;;;17.80;99.90;;;;;;5119929;28;20256;-79
2022/07/25 03:12:27;;;;;;;8.05;5.57;;;17.70;99.90;;;;;;5117616;28;20215;-77
2022/07/25 03:14:54;;;;;;;8.07;5.32;;;17.70;99.90;;;;;;5105556;28;20757;-77
2022/07/25 03:17:21;;;;;;;8.88;5.63;;;17.60;99.90;;;;;;5113206;28;20265;-79
2022/07/25 03:19:48;;;;;;;6.95;5.40;;;17.50;99.90;;;;;;5120318;28;20260;-78
2022/07/25 03:22:17;;;;;;;8.68;5.40;;;17.60;99.90;;;;;;5119980;28;20208;-78
2022/07/25 03:24:44;;;;;;;6.03;5.10;;;17.60;99.90;;;;;;5122064;28;20772;-78
2022/07/25 03:27:10;;;;;;;8.68;5.57;;;17.50;99.90;;;;;;5121108;28;20228;-76
2022/07/25 03:29:37;;;;;;;8.02;5.68;;;17.40;99.90;;;;;;5121202;28;20728;-78
2022/07/25 03:32:05;;;;;;;8.35;5.72;;;17.40;99.90;;;;;;5119405;28;20280;-77
2022/07/25 03:34:32;;;;;;;9.68;5.97;;;17.40;99.90;;;;;;5120874;28;20316;-80
2022/07/25 03:37:00;;;;;;;10.45;5.95;;;17.40;99.90;;;;;;5120825;28;20224;-79
2022/07/25 03:39:29;;;;;;;11.23;6.07;;;17.40;99.90;;;;;;5121910;28;20550;-79
2022/07/25 03:41:56;;;;;;;9.80;6.00;;;17.40;99.90;;;;;;5121941;28;20228;-80
2022/07/25 03:44:24;;;;;;;10.45;5.80;;;17.30;99.90;;;;;;5121290;28;20260;-79
2022/07/25 03:46:51;;;;;;;9.18;5.60;;;17.40;99.90;;;;;;5120649;28;20206;-78
2022/07/25 03:49:19;;;;;;;9.32;5.88;;;17.50;99.90;;;;;;5122263;28;20244;-80
2022/07/25 03:51:46;;;;;;;7.43;5.72;;;17.80;99.90;;;;;;5101373;28;20237;-79
2022/07/25 03:54:13;;;;;;;8.00;5.68;;;17.80;99.90;;;;;;5100068;28;20225;-79
2022/07/25 03:56:43;;;;;;;8.15;5.35;;;17.80;99.90;;;;;;5121178;28;20212;-79
2022/07/25 03:59:11;;;;;;;7.10;5.20;;;17.50;99.90;;;;;;5102417;28;20298;-78
2022/07/25 04:01:38;;;;;;;10.00;6.13;;;17.50;99.90;;;;;;5099521;28;20202;-80
2022/07/25 04:04:05;;;;;;;10.02;6.25;;;17.50;99.90;;;;;;5100816;28;20232;-79
2022/07/25 04:06:32;;;;;;;9.13;5.72;;;17.40;99.90;;;;;;5110152;28;20193;-79
2022/07/25 04:08:59;;;;;;;8.30;5.55;;;18.40;99.90;;;;;;5121042;28;20211;-79
2022/07/25 04:11:26;;;;;;;7.13;4.95;;;19.50;99.90;;;;;;5120387;28;20205;-80
2022/07/25 04:13:55;;;;;;;8.15;5.82;;;19.00;95.30;;;;;;5120510;28;20221;-80
2022/07/25 04:16:22;;;;;;;6.60;5.10;;;18.50;99.90;;;;;;5117976;28;20221;-79
2022/07/25 04:18:49;;;;;;;10.02;5.40;;;18.50;99.90;;;;;;5118570;28;20208;-79
2022/07/25 04:21:16;;;;;;;10.23;5.22;;;18.70;99.30;;;;;;5118712;28;20328;-80
2022/07/25 04:23:43;;;;;;;13.48;5.85;;;18.80;96.90;;;;;;5117506;28;20311;-80
2022/07/25 04:26:10;;;;;;;11.65;5.80;;;18.90;99.90;;;;;;5118041;28;20616;-79
2022/07/25 04:28:37;;;;;;;12.73;5.65;;;19.00;97.90;;;;;;5118720;28;20201;-79
2022/07/25 04:31:06;;;;;;;14.93;5.45;;;19.10;96.90;;;;;;5116852;28;20231;-79
2022/07/25 04:33:32;;;;;;;11.75;5.82;;;19.00;99.10;;;;;;5116837;28;20241;-79
2022/07/25 04:35:59;;;;;;;6.28;5.18;;;19.00;99.90;;;;;;5116325;28;20637;-79
2022/07/25 04:38:26;;;;;;;7.50;5.30;;;18.90;99.90;;;;;;5117728;28;20235;-79
2022/07/25 04:40:53;;;;;;;8.50;5.82;;;19.00;99.90;;;;;;5117776;28;20235;-80
2022/07/25 04:43:20;;;;;;;8.15;5.18;;;19.40;99.90;;;;;;5116984;28;20231;-79
2022/07/25 04:45:47;;;;;;;10.32;5.13;;;19.60;98.00;;;;;;5117887;28;20228;-80
2022/07/25 04:48:15;;;;;;;8.48;4.70;;;19.80;94.70;;;;;;5117064;28;20209;-79
2022/07/25 04:50:42;;;;;;;17.42;5.60;;;19.70;95.60;;;;;;5098010;28;20221;-79
2022/07/25 04:53:09;;;;;;;12.77;5.57;;;19.70;94.80;;;;;;5093901;28;20225;-80
2022/07/25 04:55:37;;;;;;;10.32;5.88;;;19.60;97.10;;;;;;5096561;28;20209;-80
2022/07/25 04:58:04;;;;;;;16.13;5.78;;;19.70;97.90;;;;;;5108435;28;20301;-80
2022/07/25 05:00:31;;;;;;;12.75;6.03;;;19.90;98.20;;;;;;5117263;28;20642;-80
2022/07/25 05:02:58;;;;;;;15.52;5.53;;;19.80;96.70;;;;;;5116717;28;20228;-80
2022/07/25 05:05:26;;;;;;;13.95;6.00;;;20.00;99.00;;;;;;5115366;28;20296;-79
2022/07/25 05:07:56;;;;;;;17.33;5.40;;;20.00;99.90;;;;;;5115744;28;20288;-79
2022/07/25 05:10:23;;;;;;;20.77;6.70;;;20.00;99.40;;;;;;5116595;28;20286;-79
2022/07/25 05:12:50;;;;;;;23.13;7.22;;;20.20;99.90;;;;;;5112453;28;20239;-80
2022/07/25 05:15:17;;;;;;;22.52;6.45;;;20.10;99.90;;;;;;5104951;28;20292;-80
2022/07/25 05:17:44;;;;;;;28.10;7.00;;;20.20;99.90;;;;;;5112352;28;20220;-80
2022/07/25 05:20:12;;;;;;;21.95;6.13;;;20.20;99.90;;;;;;5107559;28;20198;-80
2022/07/25 05:22:40;;;;;;;24.30;6.45;;;20.30;99.90;;;;;;5114866;28;20203;-80
2022/07/25 05:25:09;;;;;;;19.75;6.55;;;20.50;99.90;;;;;;5114119;28;20215;-79
2022/07/25 05:27:36;;;;;;;25.58;7.47;;;20.70;99.90;;;;;;5096846;28;20206;-80
2022/07/25 05:30:04;;;;;;;15.25;6.13;;;21.00;99.90;;;;;;5093089;28;20225;-80
2022/07/25 05:32:31;;;;;;;22.30;6.47;;;20.80;97.20;;;;;;5092694;28;20208;-80
2022/07/25 05:34:58;;;;;;;18.90;6.68;;;20.80;96.00;;;;;;5092845;28;20307;-79
2022/07/25 05:37:25;;;;;;;16.35;6.07;;;20.90;98.60;;;;;;5093168;28;20211;-79
2022/07/25 05:39:53;;;;;;;21.25;6.47;;;21.30;99.90;;;;;;5094240;28;20282;-80
2022/07/25 05:42:20;;;;;;;17.10;6.07;;;21.10;97.30;;;;;;5100167;28;20228;-80
2022/07/25 05:44:47;;;;;;;19.27;5.80;;;21.50;99.90;;;;;;5113313;28;20312;-79
2022/07/25 05:47:14;;;;;;;12.60;5.65;;;21.90;98.50;;;;;;5114048;28;20582;-80
2022/07/25 05:49:41;;;;;;;15.98;5.45;;;23.00;83.90;;;;;;5111905;28;20278;-80
2022/07/25 05:52:08;;;;;;;10.43;5.13;;;23.70;71.30;;;;;;5111994;28;20205;-80
2022/07/25 05:55:04;;;;;;;8.13;5.10;;;23.30;55.70;;;;;;5132639;28;20201;-80
2022/07/25 05:57:35;;;;;;;5.70;5.10;;;22.90;63.10;;;;;;5114890;28;20201;-80
2022/07/25 06:00:03;;;;;;;7.75;4.90;;;22.90;55.10;;;;;;5113498;28;20617;-81
2022/07/25 06:02:29;;;;;;;6.20;5.28;;;23.30;54.10;;;;;;5111249;28;20868;-81
2022/07/25 06:04:56;;;;;;;5.57;4.90;;;23.30;52.90;;;;;;5113566;28;20227;-81
2022/07/25 06:07:23;;;;;;;7.50;5.32;;;23.70;47.10;;;;;;5112915;28;20207;-80
2022/07/25 06:09:50;;;;;;;6.47;5.30;;;23.90;46.50;;;;;;5114948;28;20207;-81
2022/07/25 06:12:17;;;;;;;5.88;4.85;;;24.20;44.00;;;;;;5114689;22;20229;-71
2022/07/25 06:14:45;;;;;;;6.03;5.00;;;24.40;38.20;;;;;;5090703;28;20201;-71
2022/07/25 06:17:12;;;;;;;6.32;5.28;;;24.70;38.10;;;;;;5092189;28;20207;-71
2022/07/25 06:19:39;;;;;;;5.90;5.38;;;24.80;35.20;;;;;;5092600;28;20209;-72
2022/07/25 06:22:06;;;;;;;5.72;4.97;;;25.00;33.90;;;;;;5092331;28;20211;-72
2022/07/25 06:24:33;;;;;;;6.00;5.25;;;25.00;30.00;;;;;;5091352;28;20205;-71
2022/07/25 06:27:00;;;;;;;6.22;5.28;;;25.10;31.20;;;;;;5091303;28;20205;-72
2022/07/25 06:29:27;;;;;;;8.70;5.65;;;25.30;28.80;;;;;;5092603;28;20214;-72
2022/07/25 06:31:55;;;;;;;6.00;5.22;;;25.30;28.60;;;;;;5091579;28;20705;-71
2022/07/25 06:34:22;;;;;;;9.00;5.50;;;25.20;30.10;;;;;;5092408;28;20554;-72
2022/07/25 06:36:49;;;;;;;6.07;5.47;;;25.40;27.90;;;;;;5092520;28;20211;-72
2022/07/25 06:39:18;;;;;;;6.30;5.45;;;25.50;27.10;;;;;;5091748;28;20201;-72
2022/07/25 06:41:45;;;;;;;6.82;5.25;;;25.50;27.70;;;;;;5092174;28;20204;-72
2022/07/25 06:44:12;;;;;;;6.95;5.15;;;25.60;28.10;;;;;;5091576;28;20215;-72
2022/07/25 06:46:38;;;;;;;8.38;5.68;;;25.70;26.30;;;;;;5092577;28;20296;-72
2022/07/25 06:49:07;;;;;;;5.82;5.22;;;25.90;24.70;;;;;;5092411;28;20205;-72
2022/07/25 06:51:34;;;;;;;7.28;5.70;;;25.70;25.90;;;;;;5091267;28;20301;-72
2022/07/25 06:54:00;;;;;;;6.35;5.53;;;25.70;27.20;;;;;;5083670;28;20202;-72
2022/07/25 06:56:30;;;;;;;6.25;5.60;;;25.90;26.20;;;;;;5090805;28;20205;-71
2022/07/25 06:58:57;;;;;;;7.57;5.03;;;26.00;25.80;;;;;;5080427;28;20644;-72
2022/07/25 07:01:24;;;;;;;6.82;6.00;;;26.00;25.80;;;;;;5077920;28;20289;-72
2022/07/25 07:03:51;;;;;;;6.72;5.93;;;26.10;24.00;;;;;;5092079;28;20209;-72
2022/07/25 07:06:19;;;;;;;6.60;5.90;;;26.30;25.00;;;;;;5091971;28;20207;-71
2022/07/25 07:08:46;;;;;;;10.23;6.10;;;26.50;23.70;;;;;;5091412;28;20213;-72
2022/07/25 07:11:14;;;;;;;6.03;5.43;;;26.80;22.30;;;;;;5092058;28;20261;-72
2022/07/25 07:13:41;;;;;;;7.38;5.97;;;26.80;21.50;;;;;;5092344;28;20595;-71
2022/07/25 07:16:08;;;;;;;7.05;6.13;;;26.70;22.90;;;;;;5092007;28;20207;-72
2022/07/25 07:18:35;;;;;;;6.40;5.68;;;26.80;21.30;;;;;;5091483;28;20209;-71
2022/07/25 07:21:02;;;;;;;6.72;5.90;;;26.90;21.10;;;;;;5091004;28;20202;-71
2022/07/25 07:23:30;;;;;;;6.50;5.90;;;27.00;20.90;;;;;;5090907;28;20228;-72
2022/07/25 07:25:57;;;;;;;6.75;5.63;;;27.10;21.90;;;;;;5091241;28;20201;-73
2022/07/25 07:28:24;;;;;;;7.95;5.93;;;27.10;22.00;;;;;;5091887;28;20633;-73
2022/07/25 07:30:51;;;;;;;7.13;6.18;;;27.20;23.80;;;;;;5091633;28;20232;-71
2022/07/25 07:33:18;;;;;;;8.73;6.05;;;27.30;21.60;;;;;;5091056;28;20209;-72
2022/07/25 07:35:45;;;;;;;8.15;6.80;;;27.50;21.50;;;;;;5091940;28;20208;-71
2022/07/25 07:38:12;;;;;;;8.25;6.85;;;27.60;20.60;;;;;;5090995;28;20216;-71
2022/07/25 07:40:40;;;;;;;7.82;6.45;;;27.90;19.50;;;;;;5092236;28;20411;-72
2022/07/25 07:43:07;;;;;;;7.18;6.35;;;28.00;19.50;;;;;;5083095;28;20544;-72
2022/07/25 07:45:34;;;;;;;7.30;6.50;;;28.00;18.50;;;;;;5091730;28;20293;-73
2022/07/25 07:48:01;;;;;;;6.70;6.10;;;28.00;17.90;;;;;;5090330;28;20541;-73
2022/07/25 07:50:28;;;;;;;9.77;6.60;;;28.10;18.00;;;;;;5091325;28;20228;-72
2022/07/25 07:52:57;;;;;;;8.00;6.30;;;28.10;18.70;;;;;;5091454;28;20202;-73
2022/07/25 07:58:10;;;;;;;7.53;6.75;;;28.20;18.70;;;;;;5091065;28;20334;-72
2022/07/25 08:00:38;;;;;;;7.15;6.45;;;28.60;16.90;;;;;;5091436;28;20205;-73
2022/07/25 08:03:07;;;;;;;6.93;6.25;;;28.70;17.30;;;;;;5090610;28;20592;-72
2022/07/25 08:05:36;;;;;;;9.95;7.57;;;28.70;15.50;;;;;;5091690;28;20208;-71
2022/07/25 08:08:04;;;;;;;7.40;6.70;;;28.70;15.50;;;;;;5091909;28;20576;-71
2022/07/25 08:10:35;;;;;;;7.00;6.30;;;28.70;14.50;;;;;;5095006;28;20679;-71
2022/07/25 08:13:03;;;;;;;7.72;6.93;;;28.80;14.50;;;;;;5094584;28;20663;-72
2022/07/25 08:15:31;;;;;;;7.07;6.40;;;28.70;14.10;;;;;;5094979;28;20293;-72
2022/07/25 08:17:59;;;;;;;8.45;6.72;;;28.80;14.40;;;;;;5093864;28;20289;-73
2022/07/25 08:20:26;;;;;;;8.25;6.60;;;29.00;13.90;;;;;;5087323;28;20197;-72
2022/07/25 08:22:53;;;;;;;6.95;6.25;;;29.10;13.10;;;;;;5093570;28;20201;-73
2022/07/25 08:25:21;;;;;;;7.47;5.97;;;29.10;13.30;;;;;;5088151;28;20198;-73
2022/07/25 08:27:48;;;;;;;8.75;6.30;;;29.20;13.30;;;;;;5093842;28;20205;-71
2022/07/25 08:30:17;;;;;;;6.70;6.10;;;29.20;12.70;;;;;;5093789;28;20197;-71
2022/07/25 08:32:49;;;;;;;9.50;6.70;;;29.30;12.10;;;;;;5093449;28;20200;-72
2022/07/25 08:35:17;;;;;;;8.77;6.53;;;29.40;12.60;;;;;;5094091;28;20547;-72
2022/07/25 08:37:44;;;;;;;7.82;6.85;;;29.50;11.50;;;;;;5094691;28;20604;-71
2022/07/25 08:40:12;;;;;;;6.53;5.90;;;29.50;11.30;;;;;;5094567;28;20301;-73
2022/07/25 08:42:39;;;;;;;9.18;6.78;;;29.50;12.10;;;;;;5093636;28;20198;-73
2022/07/25 08:45:08;;;;;;;8.35;7.00;;;29.60;11.10;;;;;;5094424;28;20566;-72
2022/07/25 08:47:37;;;;;;;9.57;6.60;;;29.60;10.20;;;;;;5094371;28;20292;-73
2022/07/25 08:50:07;;;;;;;7.38;6.68;;;29.60;10.30;;;;;;5094016;28;20207;-72
2022/07/25 08:52:36;;;;;;;7.15;6.53;;;29.80;10.70;;;;;;5094425;28;20313;-72
2022/07/25 08:55:04;;;;;;;7.63;6.50;;;30.00;10.40;;;;;;5094399;28;20201;-72
2022/07/25 08:57:31;;;;;;;8.27;6.43;;;30.20;9.80;;;;;;5094118;28;20210;-72
2022/07/25 08:59:58;;;;;;;7.60;6.60;;;30.50;12.00;;;;;;5093755;28;20198;-73
2022/07/25 09:02:27;;;;;;;7.35;6.65;;;30.60;10.30;;;;;;5092966;28;20208;-73
2022/07/25 09:04:54;;;;;;;7.68;6.88;;;30.80;9.20;;;;;;5093929;28;20214;-72
2022/07/25 09:07:32;;;;;;;8.02;7.13;;;30.90;8.20;;;;;;5093639;28;20743;-73
2022/07/25 09:09:59;;;;;;;7.93;6.47;;;31.40;8.30;;;;;;5081254;28;20197;-73
2022/07/25 09:12:27;;;;;;;12.48;7.65;;;31.80;7.30;;;;;;5086111;28;20218;-73
2022/07/25 09:14:54;;;;;;;7.00;6.30;;;32.10;6.50;;;;;;5087596;28;20210;-68
2022/07/25 09:17:21;;;;;;;7.25;6.55;;;32.50;7.40;;;;;;5083893;28;20272;-68
2022/07/25 09:19:55;;;;;;;8.40;7.25;;;33.30;6.20;;;;;;5088141;28;20562;-68
2022/07/25 09:22:23;;;;;;;8.30;7.43;;;33.30;4.70;;;;;;5090580;28;20201;-68
2022/07/25 09:24:51;;;;;;;7.43;6.60;;;33.00;3.70;;;;;;5071546;28;20287;-73
2022/07/25 09:27:18;;;;;;;7.45;6.78;;;32.70;3.40;;;;;;5075210;28;20592;-73
2022/07/25 09:29:45;;;;;;;8.82;7.18;;;32.70;2.60;;;;;;5084359;28;20260;-73
2022/07/25 09:32:17;;;;;;;7.63;6.78;;;32.70;3.40;;;;;;5090439;28;20294;-73
2022/07/25 09:34:47;;;;;;;9.68;7.00;;;33.00;3.60;;;;;;5072850;28;20248;-72
2022/07/25 09:37:17;;;;;;;7.38;6.55;;;33.20;3.30;;;;;;5074611;28;20241;-74
2022/07/25 09:39:46;;;;;;;7.85;6.97;;;33.00;2.50;;;;;;5092875;28;20197;-68
2022/07/25 09:42:21;;;;;;;8.68;6.60;;;33.40;2.60;;;;;;5091677;28;20201;-68
2022/07/25 09:45:10;;;;;;;7.78;7.03;;;33.40;3.00;;;;;;5092756;28;20540;-68
2022/07/25 09:47:38;;;;;;;8.02;7.22;;;33.30;1.00;;;;;;5091606;28;20205;-67
2022/07/25 09:50:07;;;;;;;10.52;7.68;;;33.10;1.40;;;;;;5091815;28;20247;-68
2022/07/25 09:52:35;;;;;;;8.07;7.25;;;33.00;1.60;;;;;;5091729;28;20725;-68
2022/07/25 09:55:05;;;;;;;8.50;7.70;;;32.60;1.40;;;;;;5091997;28;20226;-68
2022/07/25 09:57:33;;;;;;;8.65;7.75;;;33.00;2.10;;;;;;5092047;28;20202;-67
2022/07/25 10:00:01;;;;;;;8.02;7.30;;;33.30;1.00;;;;;;5090519;28;20198;-68
2022/07/25 10:02:40;;;;;;;7.82;7.03;;;33.90;2.40;;;;;;5090887;28;20201;-68
2022/07/25 10:05:14;;;;;;;10.93;7.18;;;34.20;1.00;;;;;;5090751;28;20198;-72
2022/07/25 10:07:46;;;;;;;8.32;7.47;;;34.10;1.00;;;;;;5091351;28;20193;-68
2022/07/25 10:10:27;;;;;;;7.07;6.43;;;34.00;1.00;;;;;;5092308;28;20197;-67
2022/07/25 10:13:04;;;;;;;7.95;7.18;;;34.40;1.00;;;;;;5090803;28;20232;-72
2022/07/25 10:15:47;;;;;;;8.90;7.18;;;34.50;1.00;;;;;;5091872;28;20197;-73
2022/07/25 10:18:15;;;;;;;7.88;7.18;;;33.80;1.00;;;;;;5091239;28;20197;-72
2022/07/25 10:20:43;;;;;;;10.23;6.38;;;33.60;1.00;;;;;;5081611;28;20210;-72
2022/07/25 10:23:21;;;;;;;7.35;6.65;;;33.40;1.00;;;;;;5069375;28;20649;-73
2022/07/25 10:26:00;;;;;;;8.23;7.43;;;33.30;1.00;;;;;;5079971;28;20222;-72
2022/07/25 10:28:38;;;;;;;8.35;7.28;;;33.50;1.00;;;;;;5091705;28;20211;-73
2022/07/25 10:31:16;;;;;;;8.02;6.57;;;33.70;1.00;;;;;;5089412;28;20212;-72
2022/07/25 10:33:43;;;;;;;7.28;6.65;;;33.80;1.00;;;;;;5090659;28;20201;-72
2022/07/25 10:36:11;;;;;;;12.05;7.07;;;33.80;1.00;;;;;;5090275;28;20232;-73
2022/07/25 10:38:40;;;;;;;8.00;6.47;;;34.10;1.00;;;;;;5089652;28;20209;-68
2022/07/25 10:41:09;;;;;;;6.93;6.28;;;34.40;1.00;;;;;;5070868;28;20667;-72
2022/07/25 10:43:40;;;;;;;7.25;6.47;;;34.00;1.00;;;;;;5077498;28;20205;-67
2022/07/25 10:46:13;;;;;;;6.80;6.20;;;33.90;1.00;;;;;;5071774;28;20248;-72
2022/07/25 10:48:41;;;;;;;8.43;6.60;;;34.50;1.00;;;;;;5071590;28;20190;-68
2022/07/25 10:51:10;;;;;;;7.25;6.60;;;34.30;1.00;;;;;;5075371;28;20716;-67
2022/07/25 10:53:44;;;;;;;9.63;6.60;;;34.60;1.00;;;;;;5091650;28;20201;-68
2022/07/25 10:56:14;;;;;;;7.05;6.40;;;34.70;1.00;;;;;;5090647;28;20289;-68
2022/07/25 10:58:47;;;;;;;6.03;5.43;;;35.20;1.00;;;;;;5091345;28;20272;-68
2022/07/25 11:01:19;;;;;;;7.10;6.30;;;34.60;1.00;;;;;;5091343;28;20610;-68
2022/07/25 11:03:46;;;;;;;9.73;6.93;;;35.60;1.00;;;;;;5090929;28;20564;-68
2022/07/25 11:06:14;;;;;;;7.13;5.90;;;35.20;1.00;;;;;;5090805;28;20679;-68
2022/07/25 11:08:42;;;;;;;6.43;5.82;;;35.40;1.00;;;;;;5090606;28;20202;-68
2022/07/25 11:11:09;;;;;;;7.90;5.50;;;35.90;1.00;;;;;;5090767;28;20241;-68
2022/07/25 11:13:40;;;;;;;6.20;5.70;;;36.10;1.00;;;;;;5090854;28;20297;-68
2022/07/25 11:16:10;;;;;;;5.97;5.38;;;35.70;1.00;;;;;;5090730;28;20201;-68
2022/07/25 11:18:39;;;;;;;8.23;6.68;;;35.30;1.00;;;;;;5089583;28;20251;-67
2022/07/25 11:21:07;;;;;;;6.68;6.07;;;35.20;1.00;;;;;;5083913;28;20254;-73
2022/07/25 11:23:35;;;;;;;6.50;5.90;;;34.80;1.00;;;;;;5089855;28;20264;-73
2022/07/25 11:26:09;;;;;;;6.45;5.72;;;34.40;1.00;;;;;;5086657;28;20240;-68
2022/07/25 11:28:44;;;;;;;6.93;6.32;;;34.20;1.00;;;;;;5081409;28;20237;-68
2022/07/25 11:31:14;;;;;;;6.75;5.75;;;34.00;1.00;;;;;;5089778;28;20546;-68
2022/07/25 11:33:43;;;;;;;6.05;5.45;;;34.00;1.00;;;;;;5089842;28;20236;-67
2022/07/25 11:36:10;;;;;;;6.93;6.22;;;33.90;1.00;;;;;;5089919;28;20202;-67
2022/07/25 11:38:38;;;;;;;6.82;6.05;;;33.50;1.00;;;;;;5090002;28;20201;-72
2022/07/25 11:41:07;;;;;;;6.90;6.30;;;33.80;1.00;;;;;;5090869;28;20250;-72
2022/07/25 11:43:34;;;;;;;7.32;6.60;;;34.00;1.00;;;;;;5092678;28;20241;-68
2022/07/25 11:46:03;;;;;;;8.30;6.45;;;33.80;1.00;;;;;;5094995;28;20218;-68
2022/07/25 11:48:37;;;;;;;8.27;6.35;;;34.00;1.00;;;;;;5095094;28;20182;-67
2022/07/25 11:51:12;;;;;;;7.82;7.03;;;34.00;1.00;;;;;;5093392;28;20216;-72
2022/07/25 11:53:44;;;;;;;7.78;6.53;;;34.20;1.00;;;;;;5094092;28;20243;-72
2022/07/25 11:56:23;;;;;;;7.75;7.05;;;34.60;1.00;;;;;;5091300;28;20246;-68
2022/07/25 11:58:57;;;;;;;8.25;7.03;;;34.90;1.00;;;;;;5094220;28;20208;-68
2022/07/25 12:01:25;;;;;;;10.85;7.40;;;34.40;1.00;;;;;;5093900;28;20193;-68
2022/07/25 12:03:53;;;;;;;7.32;6.63;;;34.20;1.00;;;;;;5091489;28;20197;-68
2022/07/25 12:06:20;;;;;;;7.80;7.10;;;34.30;1.00;;;;;;5086698;28;20198;-68
2022/07/25 12:08:48;;;;;;;8.18;7.07;;;33.80;1.00;;;;;;5094236;28;20662;-68
2022/07/25 12:11:20;;;;;;;7.43;6.78;;;34.00;1.00;;;;;;5094157;28;20627;-68
2022/07/25 12:13:47;;;;;;;7.57;6.50;;;34.50;1.00;;;;;;5090800;28;20213;-68
2022/07/25 12:16:15;;;;;;;7.18;6.47;;;34.60;1.00;;;;;;5095221;28;20205;-68
2022/07/25 12:18:42;;;;;;;12.70;11.35;;;35.30;1.00;;;;;;5094514;28;20211;-68
2022/07/25 12:21:10;;;;;;;8.45;7.40;;;35.10;1.00;;;;;;5094897;28;20521;-68
2022/07/25 12:23:40;;;;;;;7.32;6.65;;;35.20;1.00;;;;;;5094499;28;20300;-68
2022/07/25 12:26:08;;;;;;;7.47;6.70;;;34.50;1.00;;;;;;5094572;28;20247;-68
2022/07/25 12:28:35;;;;;;;7.07;6.40;;;34.40;1.00;;;;;;5094574;28;20541;-67
2022/07/25 12:31:03;;;;;;;7.63;6.63;;;34.50;1.00;;;;;;5093937;28;20197;-67
2022/07/25 12:33:31;;;;;;;8.98;6.25;;;34.20;1.00;;;;;;5093925;28;20232;-68
2022/07/25 12:35:58;;;;;;;7.18;5.93;;;34.10;1.00;;;;;;5094172;28;20258;-68
2022/07/25 12:38:27;;;;;;;7.15;6.45;;;34.30;1.00;;;;;;5094096;28;20296;-68
2022/07/25 12:40:54;;;;;;;7.55;6.70;;;34.30;1.00;;;;;;5093608;28;20612;-67
2022/07/25 12:43:21;;;;;;;6.45;5.70;;;34.60;1.00;;;;;;5093589;28;20194;-68
2022/07/25 12:45:48;;;;;;;6.85;6.15;;;34.70;1.00;;;;;;5094482;28;20251;-67
2022/07/25 12:48:15;;;;;;;7.78;6.40;;;34.30;1.00;;;;;;5094335;28;20280;-68
2022/07/25 12:50:42;;;;;;;6.90;5.72;;;34.10;1.00;;;;;;5093295;28;20666;-68
2022/07/25 12:53:09;;;;;;;6.85;6.15;;;33.80;1.00;;;;;;5093345;28;20216;-67